sensor_id;sensor_type;location;lat;lon;timestamp;P1;durP1;ratioP1;P2;durP2;ratioP2
14001;SDS011;7076;51.280;12.584;2024-02-23T00:02:10;0.60;;;0.60;;
14001;SDS011;7076;51.280;12.584;2024-02-23T00:07:12;0.73;;;0.60;;
14001;SDS011;7076;51.280;12.584;2024-02-23T00:12:15;0.52;;;0.52;;
14001;SDS011;7076;51.280;12.584;2024-02-23T00:17:20;0.63;;;0.50;;
14001;SDS011;7076;51.280;12.584;2024-02-23T00:22:23;0.52;;;0.50;;
14001;SDS011;7076;51.280;12.584;2024-02-23T00:27:27;0.50;;;0.50;;
14001;SDS011;7076;51.280;12.584;2024-02-23T00:32:31;0.52;;;0.50;;
14001;SDS011;7076;51.280;12.584;2024-02-23T00:37:34;0.82;;;0.63;;
14001;SDS011;7076;51.280;12.584;2024-02-23T00:42:37;0.52;;;0.52;;
14001;SDS011;7076;51.280;12.584;2024-02-23T00:47:42;1.15;;;0.60;;
14001;SDS011;7076;51.280;12.584;2024-02-23T00:52:47;0.60;;;0.50;;
14001;SDS011;7076;51.280;12.584;2024-02-23T00:57:50;1.25;;;0.80;;
14001;SDS011;7076;51.280;12.584;2024-02-23T01:02:54;0.60;;;0.50;;
14001;SDS011;7076;51.280;12.584;2024-02-23T01:07:59;0.55;;;0.52;;
14001;SDS011;7076;51.280;12.584;2024-02-23T01:13:02;0.60;;;0.50;;
14001;SDS011;7076;51.280;12.584;2024-02-23T01:18:07;0.70;;;0.70;;
14001;SDS011;7076;51.280;12.584;2024-02-23T01:23:11;0.40;;;0.40;;
14001;SDS011;7076;51.280;12.584;2024-02-23T01:28:13;0.57;;;0.50;;
14001;SDS011;7076;51.280;12.584;2024-02-23T01:33:18;0.73;;;0.45;;
14001;SDS011;7076;51.280;12.584;2024-02-23T01:38:21;0.93;;;0.60;;
14001;SDS011;7076;51.280;12.584;2024-02-23T01:43:24;0.63;;;0.40;;
14001;SDS011;7076;51.280;12.584;2024-02-23T01:48:28;1.35;;;0.57;;
14001;SDS011;7076;51.280;12.584;2024-02-23T01:53:31;0.40;;;0.40;;
14001;SDS011;7076;51.280;12.584;2024-02-23T01:58:34;0.65;;;0.47;;
14001;SDS011;7076;51.280;12.584;2024-02-23T02:03:39;0.40;;;0.40;;
14001;SDS011;7076;51.280;12.584;2024-02-23T02:08:42;0.38;;;0.38;;
14001;SDS011;7076;51.280;12.584;2024-02-23T02:13:45;0.45;;;0.45;;
14001;SDS011;7076;51.280;12.584;2024-02-23T02:18:49;2.25;;;0.30;;
14001;SDS011;7076;51.280;12.584;2024-02-23T02:23:51;0.40;;;0.40;;
14001;SDS011;7076;51.280;12.584;2024-02-23T02:28:54;2.70;;;0.70;;
14001;SDS011;7076;51.280;12.584;2024-02-23T02:33:58;2.22;;;0.63;;
14001;SDS011;7076;51.280;12.584;2024-02-23T02:39:01;1.15;;;0.57;;
14001;SDS011;7076;51.280;12.584;2024-02-23T02:44:04;1.13;;;0.45;;
14001;SDS011;7076;51.280;12.584;2024-02-23T02:49:09;0.65;;;0.50;;
14001;SDS011;7076;51.280;12.584;2024-02-23T02:54:11;0.30;;;0.30;;
14001;SDS011;7076;51.280;12.584;2024-02-23T02:59:14;0.40;;;0.40;;
14001;SDS011;7076;51.280;12.584;2024-02-23T03:04:19;3.38;;;0.57;;
14001;SDS011;7076;51.280;12.584;2024-02-23T03:09:22;0.30;;;0.30;;
14001;SDS011;7076;51.280;12.584;2024-02-23T03:14:25;0.63;;;0.40;;
14001;SDS011;7076;51.280;12.584;2024-02-23T03:19:31;0.52;;;0.50;;
14001;SDS011;7076;51.280;12.584;2024-02-23T03:24:35;0.30;;;0.30;;
14001;SDS011;7076;51.280;12.584;2024-02-23T03:29:40;1.65;;;0.50;;
14001;SDS011;7076;51.280;12.584;2024-02-23T03:34:44;0.38;;;0.38;;
14001;SDS011;7076;51.280;12.584;2024-02-23T03:39:47;0.50;;;0.50;;
14001;SDS011;7076;51.280;12.584;2024-02-23T03:44:50;1.65;;;0.38;;
14001;SDS011;7076;51.280;12.584;2024-02-23T03:49:54;0.40;;;0.40;;
14001;SDS011;7076;51.280;12.584;2024-02-23T03:54:57;0.40;;;0.40;;
14001;SDS011;7076;51.280;12.584;2024-02-23T04:00:00;0.40;;;0.40;;
14001;SDS011;7076;51.280;12.584;2024-02-23T04:05:13;0.45;;;0.40;;
14001;SDS011;7076;51.280;12.584;2024-02-23T04:10:16;2.22;;;0.50;;
14001;SDS011;7076;51.280;12.584;2024-02-23T04:15:21;0.50;;;0.40;;
14001;SDS011;7076;51.280;12.584;2024-02-23T04:20:26;0.88;;;0.65;;
14001;SDS011;7076;51.280;12.584;2024-02-23T04:25:29;0.40;;;0.40;;
14001;SDS011;7076;51.280;12.584;2024-02-23T04:30:32;1.85;;;0.73;;
14001;SDS011;7076;51.280;12.584;2024-02-23T04:35:36;1.75;;;0.60;;
14001;SDS011;7076;51.280;12.584;2024-02-23T04:40:40;0.45;;;0.40;;
14001;SDS011;7076;51.280;12.584;2024-02-23T04:45:43;0.57;;;0.57;;
14001;SDS011;7076;51.280;12.584;2024-02-23T04:50:47;0.98;;;0.40;;
14001;SDS011;7076;51.280;12.584;2024-02-23T04:55:50;0.50;;;0.45;;
14001;SDS011;7076;51.280;12.584;2024-02-23T05:00:53;1.00;;;0.60;;
14001;SDS011;7076;51.280;12.584;2024-02-23T05:05:58;0.50;;;0.50;;
14001;SDS011;7076;51.280;12.584;2024-02-23T05:11:01;0.50;;;0.50;;
14001;SDS011;7076;51.280;12.584;2024-02-23T05:16:04;0.50;;;0.40;;
14001;SDS011;7076;51.280;12.584;2024-02-23T05:21:09;0.80;;;0.50;;
14001;SDS011;7076;51.280;12.584;2024-02-23T05:26:11;1.77;;;0.50;;
14001;SDS011;7076;51.280;12.584;2024-02-23T05:31:14;0.90;;;0.50;;
14001;SDS011;7076;51.280;12.584;2024-02-23T05:36:20;0.30;;;0.30;;
14001;SDS011;7076;51.280;12.584;2024-02-23T05:41:23;0.52;;;0.43;;
14001;SDS011;7076;51.280;12.584;2024-02-23T05:46:26;0.40;;;0.40;;
14001;SDS011;7076;51.280;12.584;2024-02-23T05:51:30;0.40;;;0.40;;
14001;SDS011;7076;51.280;12.584;2024-02-23T05:56:33;0.77;;;0.40;;
14001;SDS011;7076;51.280;12.584;2024-02-23T06:01:36;0.57;;;0.40;;
14001;SDS011;7076;51.280;12.584;2024-02-23T06:06:42;0.43;;;0.40;;
14001;SDS011;7076;51.280;12.584;2024-02-23T06:11:45;0.98;;;0.45;;
14001;SDS011;7076;51.280;12.584;2024-02-23T06:16:49;0.40;;;0.40;;
14001;SDS011;7076;51.280;12.584;2024-02-23T06:21:53;0.40;;;0.40;;
14001;SDS011;7076;51.280;12.584;2024-02-23T06:26:56;0.67;;;0.40;;
14001;SDS011;7076;51.280;12.584;2024-02-23T06:31:59;0.52;;;0.50;;
14001;SDS011;7076;51.280;12.584;2024-02-23T06:37:05;0.87;;;0.40;;
14001;SDS011;7076;51.280;12.584;2024-02-23T06:42:08;0.40;;;0.40;;
14001;SDS011;7076;51.280;12.584;2024-02-23T06:47:11;0.40;;;0.40;;
14001;SDS011;7076;51.280;12.584;2024-02-23T06:52:16;0.40;;;0.40;;
14001;SDS011;7076;51.280;12.584;2024-02-23T06:57:19;0.73;;;0.60;;
14001;SDS011;7076;51.280;12.584;2024-02-23T07:02:22;0.85;;;0.52;;
14001;SDS011;7076;51.280;12.584;2024-02-23T07:07:26;0.57;;;0.40;;
14001;SDS011;7076;51.280;12.584;2024-02-23T07:12:31;2.30;;;0.40;;
14001;SDS011;7076;51.280;12.584;2024-02-23T07:17:51;0.53;;;0.37;;
14001;SDS011;7076;51.280;12.584;2024-02-23T07:23:17;0.40;;;0.30;;
14001;SDS011;7076;51.280;12.584;2024-02-23T07:28:20;2.17;;;0.40;;
14001;SDS011;7076;51.280;12.584;2024-02-23T07:33:24;0.73;;;0.30;;
14001;SDS011;7076;51.280;12.584;2024-02-23T07:38:29;1.65;;;0.47;;
14001;SDS011;7076;51.280;12.584;2024-02-23T07:43:31;0.30;;;0.30;;
14001;SDS011;7076;51.280;12.584;2024-02-23T07:48:34;0.47;;;0.43;;
14001;SDS011;7076;51.280;12.584;2024-02-23T07:53:39;0.90;;;0.60;;
14001;SDS011;7076;51.280;12.584;2024-02-23T07:58:42;2.40;;;0.57;;
14001;SDS011;7076;51.280;12.584;2024-02-23T08:03:45;0.40;;;0.40;;
14001;SDS011;7076;51.280;12.584;2024-02-23T08:08:49;1.77;;;0.50;;
14001;SDS011;7076;51.280;12.584;2024-02-23T08:13:52;0.43;;;0.43;;
14001;SDS011;7076;51.280;12.584;2024-02-23T08:18:55;1.40;;;0.52;;
14001;SDS011;7076;51.280;12.584;2024-02-23T08:23:59;1.48;;;0.60;;
14001;SDS011;7076;51.280;12.584;2024-02-23T08:29:01;0.60;;;0.60;;
14001;SDS011;7076;51.280;12.584;2024-02-23T08:34:05;0.88;;;0.32;;
14001;SDS011;7076;51.280;12.584;2024-02-23T08:39:09;1.20;;;0.52;;
14001;SDS011;7076;51.280;12.584;2024-02-23T08:44:12;0.75;;;0.40;;
14001;SDS011;7076;51.280;12.584;2024-02-23T08:49:15;0.30;;;0.30;;
14001;SDS011;7076;51.280;12.584;2024-02-23T08:54:19;0.85;;;0.60;;
14001;SDS011;7076;51.280;12.584;2024-02-23T08:59:22;0.40;;;0.40;;
14001;SDS011;7076;51.280;12.584;2024-02-23T09:04:25;0.75;;;0.60;;
14001;SDS011;7076;51.280;12.584;2024-02-23T09:09:30;0.40;;;0.40;;
14001;SDS011;7076;51.280;12.584;2024-02-23T09:14:33;0.65;;;0.50;;
14001;SDS011;7076;51.280;12.584;2024-02-23T09:19:39;1.25;;;0.60;;
14001;SDS011;7076;51.280;12.584;2024-02-23T09:24:43;1.23;;;0.50;;
14001;SDS011;7076;51.280;12.584;2024-02-23T09:29:46;1.60;;;0.50;;
14001;SDS011;7076;51.280;12.584;2024-02-23T09:34:49;0.70;;;0.60;;
14001;SDS011;7076;51.280;12.584;2024-02-23T09:39:53;1.27;;;0.73;;
14001;SDS011;7076;51.280;12.584;2024-02-23T09:44:57;0.55;;;0.50;;
14001;SDS011;7076;51.280;12.584;2024-02-23T09:50:02;0.55;;;0.55;;
14001;SDS011;7076;51.280;12.584;2024-02-23T09:55:08;0.60;;;0.45;;
14001;SDS011;7076;51.280;12.584;2024-02-23T10:00:11;1.98;;;0.50;;
14001;SDS011;7076;51.280;12.584;2024-02-23T10:05:15;0.75;;;0.47;;
14001;SDS011;7076;51.280;12.584;2024-02-23T10:10:25;2.92;;;0.60;;
14001;SDS011;7076;51.280;12.584;2024-02-23T10:15:32;0.40;;;0.40;;
14001;SDS011;7076;51.280;12.584;2024-02-23T10:20:35;1.88;;;0.60;;
14001;SDS011;7076;51.280;12.584;2024-02-23T10:25:41;0.47;;;0.45;;
14001;SDS011;7076;51.280;12.584;2024-02-23T10:30:44;1.80;;;0.57;;
14001;SDS011;7076;51.280;12.584;2024-02-23T10:35:47;0.57;;;0.40;;
14001;SDS011;7076;51.280;12.584;2024-02-23T10:40:52;3.08;;;0.50;;
14001;SDS011;7076;51.280;12.584;2024-02-23T10:45:56;2.03;;;0.55;;
14001;SDS011;7076;51.280;12.584;2024-02-23T10:51:00;1.10;;;0.57;;
14001;SDS011;7076;51.280;12.584;2024-02-23T10:56:04;1.42;;;0.60;;
14001;SDS011;7076;51.280;12.584;2024-02-23T11:01:08;1.70;;;0.60;;
14001;SDS011;7076;51.280;12.584;2024-02-23T11:06:11;2.15;;;0.57;;
14001;SDS011;7076;51.280;12.584;2024-02-23T11:11:16;1.33;;;0.50;;
14001;SDS011;7076;51.280;12.584;2024-02-23T11:16:22;1.65;;;0.50;;
14001;SDS011;7076;51.280;12.584;2024-02-23T11:21:25;2.15;;;0.50;;
14001;SDS011;7076;51.280;12.584;2024-02-23T11:26:38;3.00;;;0.63;;
14001;SDS011;7076;51.280;12.584;2024-02-23T11:31:44;0.38;;;0.38;;
14001;SDS011;7076;51.280;12.584;2024-02-23T11:36:47;1.08;;;0.40;;
14001;SDS011;7076;51.280;12.584;2024-02-23T11:41:54;2.53;;;0.50;;
14001;SDS011;7076;51.280;12.584;2024-02-23T11:46:59;1.75;;;0.77;;
14001;SDS011;7076;51.280;12.584;2024-02-23T11:52:02;2.53;;;0.63;;
14001;SDS011;7076;51.280;12.584;2024-02-23T11:57:06;1.55;;;0.60;;
14001;SDS011;7076;51.280;12.584;2024-02-23T12:02:09;3.08;;;0.60;;
14001;SDS011;7076;51.280;12.584;2024-02-23T12:07:12;0.85;;;0.55;;
14001;SDS011;7076;51.280;12.584;2024-02-23T12:12:16;2.05;;;0.75;;
14001;SDS011;7076;51.280;12.584;2024-02-23T12:17:20;3.25;;;0.60;;
14001;SDS011;7076;51.280;12.584;2024-02-23T12:22:24;0.85;;;0.50;;
14001;SDS011;7076;51.280;12.584;2024-02-23T12:27:28;1.05;;;0.60;;
14001;SDS011;7076;51.280;12.584;2024-02-23T12:32:31;0.82;;;0.50;;
14001;SDS011;7076;51.280;12.584;2024-02-23T12:37:34;2.00;;;0.75;;
14001;SDS011;7076;51.280;12.584;2024-02-23T12:42:41;2.40;;;0.60;;
14001;SDS011;7076;51.280;12.584;2024-02-23T12:47:45;0.50;;;0.47;;
14001;SDS011;7076;51.280;12.584;2024-02-23T12:52:48;1.05;;;0.65;;
14001;SDS011;7076;51.280;12.584;2024-02-23T12:57:53;1.30;;;0.45;;
14001;SDS011;7076;51.280;12.584;2024-02-23T13:02:56;2.80;;;0.68;;
14001;SDS011;7076;51.280;12.584;2024-02-23T13:07:59;0.60;;;0.40;;
14001;SDS011;7076;51.280;12.584;2024-02-23T13:13:03;2.72;;;0.60;;
14001;SDS011;7076;51.280;12.584;2024-02-23T13:18:06;2.90;;;0.68;;
14001;SDS011;7076;51.280;12.584;2024-02-23T13:23:10;0.60;;;0.50;;
14001;SDS011;7076;51.280;12.584;2024-02-23T13:28:15;5.00;;;0.93;;
14001;SDS011;7076;51.280;12.584;2024-02-23T13:33:18;1.20;;;0.55;;
14001;SDS011;7076;51.280;12.584;2024-02-23T13:38:22;0.73;;;0.60;;
14001;SDS011;7076;51.280;12.584;2024-02-23T13:43:26;1.02;;;0.60;;
14001;SDS011;7076;51.280;12.584;2024-02-23T13:48:29;1.48;;;0.60;;
14001;SDS011;7076;51.280;12.584;2024-02-23T13:53:33;1.05;;;0.70;;
14001;SDS011;7076;51.280;12.584;2024-02-23T13:58:40;1.60;;;0.60;;
14001;SDS011;7076;51.280;12.584;2024-02-23T14:03:42;2.55;;;0.80;;
14001;SDS011;7076;51.280;12.584;2024-02-23T14:08:45;2.97;;;0.70;;
14001;SDS011;7076;51.280;12.584;2024-02-23T14:13:50;1.90;;;0.70;;
14001;SDS011;7076;51.280;12.584;2024-02-23T14:18:55;2.25;;;0.73;;
14001;SDS011;7076;51.280;12.584;2024-02-23T14:23:58;1.02;;;0.70;;
14001;SDS011;7076;51.280;12.584;2024-02-23T14:29:02;0.73;;;0.60;;
14001;SDS011;7076;51.280;12.584;2024-02-23T14:34:05;1.63;;;0.80;;
14001;SDS011;7076;51.280;12.584;2024-02-23T14:39:08;0.90;;;0.73;;
14001;SDS011;7076;51.280;12.584;2024-02-23T14:44:12;1.85;;;0.80;;
14001;SDS011;7076;51.280;12.584;2024-02-23T14:49:15;0.80;;;0.70;;
14001;SDS011;7076;51.280;12.584;2024-02-23T14:54:18;2.13;;;0.80;;
14001;SDS011;7076;51.280;12.584;2024-02-23T14:59:22;1.65;;;0.80;;
14001;SDS011;7076;51.280;12.584;2024-02-23T15:04:25;1.30;;;0.63;;
14001;SDS011;7076;51.280;12.584;2024-02-23T15:09:28;0.63;;;0.60;;
14001;SDS011;7076;51.280;12.584;2024-02-23T15:14:32;1.48;;;0.82;;
14001;SDS011;7076;51.280;12.584;2024-02-23T15:19:35;1.50;;;0.60;;
14001;SDS011;7076;51.280;12.584;2024-02-23T15:24:38;1.23;;;0.88;;
14001;SDS011;7076;51.280;12.584;2024-02-23T15:29:44;0.50;;;0.50;;
14001;SDS011;7076;51.280;12.584;2024-02-23T15:34:47;2.03;;;0.80;;
14001;SDS011;7076;51.280;12.584;2024-02-23T15:39:50;1.88;;;0.70;;
14001;SDS011;7076;51.280;12.584;2024-02-23T15:44:54;1.17;;;0.93;;
14001;SDS011;7076;51.280;12.584;2024-02-23T15:49:57;0.90;;;0.90;;
14001;SDS011;7076;51.280;12.584;2024-02-23T15:55:21;1.42;;;0.93;;
14001;SDS011;7076;51.280;12.584;2024-02-23T16:00:26;1.70;;;0.80;;
14001;SDS011;7076;51.280;12.584;2024-02-23T16:05:35;0.88;;;0.88;;
14001;SDS011;7076;51.280;12.584;2024-02-23T16:10:58;2.50;;;1.08;;
14001;SDS011;7076;51.280;12.584;2024-02-23T16:16:29;1.73;;;1.40;;
14001;SDS011;7076;51.280;12.584;2024-02-23T16:21:45;1.45;;;0.80;;
14001;SDS011;7076;51.280;12.584;2024-02-23T16:27:15;2.47;;;1.33;;
14001;SDS011;7076;51.280;12.584;2024-02-23T16:32:32;2.00;;;1.50;;
14001;SDS011;7076;51.280;12.584;2024-02-23T16:38:02;1.52;;;1.10;;
14001;SDS011;7076;51.280;12.584;2024-02-23T16:43:32;2.35;;;0.90;;
14001;SDS011;7076;51.280;12.584;2024-02-23T16:48:50;1.08;;;0.90;;
14001;SDS011;7076;51.280;12.584;2024-02-23T16:54:21;1.30;;;0.73;;
14001;SDS011;7076;51.280;12.584;2024-02-23T16:59:37;1.08;;;0.80;;
14001;SDS011;7076;51.280;12.584;2024-02-23T17:05:08;2.55;;;1.05;;
14001;SDS011;7076;51.280;12.584;2024-02-23T17:10:24;1.65;;;1.27;;
14001;SDS011;7076;51.280;12.584;2024-02-23T17:15:54;1.70;;;1.33;;
14001;SDS011;7076;51.280;12.584;2024-02-23T17:21:11;2.90;;;0.82;;
14001;SDS011;7076;51.280;12.584;2024-02-23T17:26:41;1.23;;;0.70;;
14001;SDS011;7076;51.280;12.584;2024-02-23T17:31:57;3.72;;;1.08;;
14001;SDS011;7076;51.280;12.584;2024-02-23T17:37:28;3.75;;;1.65;;
14001;SDS011;7076;51.280;12.584;2024-02-23T17:42:58;2.58;;;1.50;;
14001;SDS011;7076;51.280;12.584;2024-02-23T17:48:14;3.22;;;2.22;;
14001;SDS011;7076;51.280;12.584;2024-02-23T17:53:45;3.20;;;1.90;;
14001;SDS011;7076;51.280;12.584;2024-02-23T17:59:02;4.60;;;2.58;;
14001;SDS011;7076;51.280;12.584;2024-02-23T18:04:32;2.53;;;2.10;;
14001;SDS011;7076;51.280;12.584;2024-02-23T18:09:49;3.67;;;2.28;;
14001;SDS011;7076;51.280;12.584;2024-02-23T18:15:19;3.10;;;1.90;;
14001;SDS011;7076;51.280;12.584;2024-02-23T18:20:36;3.55;;;1.95;;
14001;SDS011;7076;51.280;12.584;2024-02-23T18:26:07;1.90;;;1.40;;
14001;SDS011;7076;51.280;12.584;2024-02-23T18:31:23;4.00;;;1.77;;
14001;SDS011;7076;51.280;12.584;2024-02-23T18:36:53;3.28;;;1.50;;
14001;SDS011;7076;51.280;12.584;2024-02-23T18:42:17;2.92;;;1.50;;
14001;SDS011;7076;51.280;12.584;2024-02-23T18:47:47;3.70;;;1.73;;
14001;SDS011;7076;51.280;12.584;2024-02-23T18:53:03;5.82;;;1.80;;
14001;SDS011;7076;51.280;12.584;2024-02-23T18:58:34;2.45;;;1.55;;
14001;SDS011;7076;51.280;12.584;2024-02-23T19:03:50;2.70;;;1.87;;
14001;SDS011;7076;51.280;12.584;2024-02-23T19:09:20;2.60;;;2.17;;
14001;SDS011;7076;51.280;12.584;2024-02-23T19:14:38;3.97;;;1.92;;
14001;SDS011;7076;51.280;12.584;2024-02-23T19:20:08;3.33;;;1.95;;
14001;SDS011;7076;51.280;12.584;2024-02-23T19:25:29;5.13;;;2.70;;
14001;SDS011;7076;51.280;12.584;2024-02-23T19:31:00;6.30;;;2.75;;
14001;SDS011;7076;51.280;12.584;2024-02-23T19:36:16;2.60;;;1.47;;
14001;SDS011;7076;51.280;12.584;2024-02-23T19:41:46;3.50;;;1.60;;
14001;SDS011;7076;51.280;12.584;2024-02-23T19:47:11;2.00;;;1.50;;
14001;SDS011;7076;51.280;12.584;2024-02-23T19:52:41;2.43;;;1.73;;
14001;SDS011;7076;51.280;12.584;2024-02-23T19:57:57;3.27;;;1.70;;
14001;SDS011;7076;51.280;12.584;2024-02-23T20:03:28;1.42;;;1.20;;
14001;SDS011;7076;51.280;12.584;2024-02-23T20:08:51;2.93;;;1.77;;
14001;SDS011;7076;51.280;12.584;2024-02-23T20:14:24;2.67;;;1.30;;
14001;SDS011;7076;51.280;12.584;2024-02-23T20:19:41;3.33;;;1.43;;
14001;SDS011;7076;51.280;12.584;2024-02-23T20:25:11;2.37;;;1.77;;
14001;SDS011;7076;51.280;12.584;2024-02-23T20:30:34;2.15;;;1.50;;
14001;SDS011;7076;51.280;12.584;2024-02-23T20:36:06;3.10;;;1.50;;
14001;SDS011;7076;51.280;12.584;2024-02-23T20:41:22;15.90;;;11.00;;
14001;SDS011;7076;51.280;12.584;2024-02-23T20:46:55;8.50;;;5.20;;
14001;SDS011;7076;51.280;12.584;2024-02-23T20:52:12;4.43;;;2.50;;
14001;SDS011;7076;51.280;12.584;2024-02-23T20:57:42;6.03;;;2.43;;
14001;SDS011;7076;51.280;12.584;2024-02-23T21:02:58;3.23;;;2.40;;
14001;SDS011;7076;51.280;12.584;2024-02-23T21:08:29;2.33;;;1.93;;
14001;SDS011;7076;51.280;12.584;2024-02-23T21:13:46;2.93;;;2.20;;
14001;SDS011;7076;51.280;12.584;2024-02-23T21:19:17;4.47;;;2.40;;
14001;SDS011;7076;51.280;12.584;2024-02-23T21:24:41;2.20;;;2.00;;
14001;SDS011;7076;51.280;12.584;2024-02-23T21:30:11;4.60;;;2.80;;
14001;SDS011;7076;51.280;12.584;2024-02-23T21:35:27;8.80;;;5.57;;
14001;SDS011;7076;51.280;12.584;2024-02-23T21:40:58;5.50;;;3.73;;
14001;SDS011;7076;51.280;12.584;2024-02-23T21:46:14;4.47;;;3.20;;
14001;SDS011;7076;51.280;12.584;2024-02-23T21:51:52;5.67;;;3.50;;
14001;SDS011;7076;51.280;12.584;2024-02-23T21:57:26;8.90;;;3.93;;
14001;SDS011;7076;51.280;12.584;2024-02-23T22:02:43;6.77;;;4.37;;
14001;SDS011;7076;51.280;12.584;2024-02-23T22:07:46;4.77;;;3.83;;
14001;SDS011;7076;51.280;12.584;2024-02-23T22:12:50;5.53;;;3.77;;
14001;SDS011;7076;51.280;12.584;2024-02-23T22:17:53;4.30;;;2.93;;
14001;SDS011;7076;51.280;12.584;2024-02-23T22:22:56;3.00;;;2.67;;
14001;SDS011;7076;51.280;12.584;2024-02-23T22:28:00;6.10;;;3.37;;
14001;SDS011;7076;51.280;12.584;2024-02-23T22:33:05;5.77;;;2.53;;
14001;SDS011;7076;51.280;12.584;2024-02-23T22:38:08;4.93;;;2.90;;
14001;SDS011;7076;51.280;12.584;2024-02-23T22:43:12;5.70;;;2.40;;
14001;SDS011;7076;51.280;12.584;2024-02-23T22:48:15;4.40;;;2.37;;
14001;SDS011;7076;51.280;12.584;2024-02-23T22:53:18;2.87;;;2.27;;
14001;SDS011;7076;51.280;12.584;2024-02-23T22:58:22;3.80;;;2.70;;
14001;SDS011;7076;51.280;12.584;2024-02-23T23:03:25;6.40;;;4.10;;
14001;SDS011;7076;51.280;12.584;2024-02-23T23:08:28;5.83;;;3.83;;
14001;SDS011;7076;51.280;12.584;2024-02-23T23:13:32;4.23;;;2.50;;
14001;SDS011;7076;51.280;12.584;2024-02-23T23:18:35;6.87;;;2.90;;
14001;SDS011;7076;51.280;12.584;2024-02-23T23:23:38;3.73;;;2.70;;
14001;SDS011;7076;51.280;12.584;2024-02-23T23:28:42;2.20;;;2.00;;
14001;SDS011;7076;51.280;12.584;2024-02-23T23:33:45;2.30;;;2.10;;
14001;SDS011;7076;51.280;12.584;2024-02-23T23:38:48;3.37;;;3.03;;
14001;SDS011;7076;51.280;12.584;2024-02-23T23:43:52;4.10;;;2.90;;
14001;SDS011;7076;51.280;12.584;2024-02-23T23:48:56;8.73;;;4.20;;
14001;SDS011;7076;51.280;12.584;2024-02-23T23:53:59;4.93;;;3.13;;
14001;SDS011;7076;51.280;12.584;2024-02-23T23:59:03;3.23;;;2.40;;
